13:35
Airports
History
Links
Donate
Help keep this website running!
PayPal
Bitcoin
This page is community maintained. The information is intended for PC simulator navigation or reference.
Always use approved charts for navigation.
MA03
Hatfield-Pilgrim
Hatfield-Pilgrim (MA03)
Hatfield, Massachusetts, United States (1038)
4
Lat/Lng:42° 25' 12.32" N / 72° 35' 38.32" W
42.420088 / -72.593978
Elevation:133'ft / 41mMSL
ID / ICAO:MA03
Runways:1
Longest:11-29
Grass 789m / 2,587ft
Nearby Weather12:56 GMT 2018-01-19
Nearby weather at KCEF, Westover Arb/metropolitan located 15.9 nautical miles from MA03
Altimeter: 29.99
Visibility: 10.0 statute miles
Wind: 0 knots (from 000°)
Temp: -9°c / 16°f
Humidity: 85.3%

METAR: KCEF 191256Z 00000KT 10SM FEW140 FEW180 SCT230 M09/M11 A2999 RMK AO2A SLP166 T10951114

(Powered by phpweather)
Nearby VORs <50NM
Nearby NDBs
Runway 11 / 29
Dimensions:788.6 x 42.7m 2587' x 140'ft
Surface:Grass
Runway 11 [A]Runway 29 [B]
Heading:095°TH 275°TH
Lat:
Lng:
42° 25' 13.44"N
72° 35' 55.64"W
42° 25' 11.2"N
72° 35' 21"W
User Notes and Comments
42° 25' 12.32" N / 72° 35' 38.32" W
Distance To
Airport ID:
Nearby Airports
(R) Hadley 2.8 NM
03MA SE 131°
(U) Northampton 6.4 NM
7B2 S 187°
(U) Turners Falls 12.4 NM
0B5 NNE 16°
(C) Westover Arb/metropolitan 15.9 NM
KCEF ( WX ) S 169°
(R) Albert Farms 17.3 NM
MA88 W 263°
(U) Orange Muni 18.7 NM
KORE ( WX ) NE 56°
(C) Westfield-barnes Rgnl 19.2 NM
KBAF ( WX ) SSW 198°
VFR Chart
Flight Planning at SkyVector.com